Time,TemperatureF,DewpointF,PressureIn,WindDirection,WindDirectionDegrees,WindSpeedMPH,WindSpeedGustMPH,Humidity,HourlyPrecipIn,Conditions,Clouds,dailyrainin,SolarRadiationWatts/m^2,SoftwareType,DateUTC
2013-03-10 00:02:00,32.9,32.1,29.80,South,191,3.5,3.5,97,0.01,,OVC,0.17,0.0,WeatherDisplay:10.37,2013-03-10 06:02:00,
2013-03-10 00:07:00,32.9,32.1,29.80,South,191,3.5,3.5,97,0.01,,OVC,0.17,0.0,WeatherDisplay:10.37,2013-03-10 06:07:00,
2013-03-10 00:12:00,32.9,32.1,29.80,South,191,2.3,2.3,97,0.01,,OVC,0.17,0.0,WeatherDisplay:10.37,2013-03-10 06:12:00,
2013-03-10 00:17:00,32.9,32.1,29.80,South,191,2.3,2.3,97,0.01,,OVC,0.17,0.0,WeatherDisplay:10.37,2013-03-10 06:17:00,
2013-03-10 00:23:00,32.9,32.1,29.80,South,191,3.5,3.5,97,0.01,,OVC,0.17,0.0,WeatherDisplay:10.37,2013-03-10 06:23:00,
2013-03-10 00:28:00,32.9,32.1,29.80,SSW,194,4.6,4.6,97,0.00,,OVC,0.17,0.0,WeatherDisplay:10.37,2013-03-10 06:28:00,
2013-03-10 00:33:00,32.9,32.1,29.81,WSW,242,5.8,5.8,97,0.00,,OVC,0.17,0.0,WeatherDisplay:10.37,2013-03-10 06:33:00,
2013-03-10 00:38:00,32.9,32.1,29.80,WSW,242,4.0,4.0,97,0.00,,OVC,0.17,0.0,WeatherDisplay:10.37,2013-03-10 06:38:00,
2013-03-10 00:43:00,32.9,32.1,29.80,SSW,210,6.9,6.9,97,0.00,,OVC,0.17,0.0,WeatherDisplay:10.37,2013-03-10 06:43:00,
2013-03-10 00:48:00,32.9,32.1,29.80,SSW,204,4.6,4.6,97,0.00,,OVC,0.17,0.0,WeatherDisplay:10.37,2013-03-10 06:48:00,
2013-03-10 00:53:00,33.1,32.3,29.81,WSW,239,4.6,4.6,97,0.00,,OVC,0.17,0.0,WeatherDisplay:10.37,2013-03-10 06:53:00,
2013-03-10 00:58:00,33.1,32.3,29.81,WSW,239,3.5,3.5,97,0.00,,OVC,0.17,0.0,WeatherDisplay:10.37,2013-03-10 06:58:00,
2013-03-10 01:04:00,33.1,32.3,29.81,WSW,237,4.0,4.0,97,0.00,,OVC,0.17,0.0,WeatherDisplay:10.37,2013-03-10 07:04:00,
2013-03-10 01:09:00,33.1,32.3,29.81,WSW,240,4.6,4.6,97,0.00,,OVC,0.17,0.0,WeatherDisplay:10.37,2013-03-10 07:09:00,
2013-03-10 01:14:00,33.1,32.3,29.80,WSW,240,3.5,3.5,97,0.00,,OVC,0.17,0.0,WeatherDisplay:10.37,2013-03-10 07:14:00,
2013-03-10 01:19:00,33.1,32.3,29.80,WSW,240,3.5,3.5,97,0.01,RA,OVC,0.18,0.0,WeatherDisplay:10.37,2013-03-10 07:19:00,
2013-03-10 01:24:00,33.1,32.3,29.80,WSW,240,4.0,4.0,97,0.01,RA,OVC,0.18,0.0,WeatherDisplay:10.37,2013-03-10 07:24:00,
2013-03-10 01:29:00,33.1,32.3,29.81,WSW,244,4.6,4.6,97,0.01,,OVC,0.18,0.0,WeatherDisplay:10.37,2013-03-10 07:29:00,
2013-03-10 01:34:00,33.1,32.3,29.81,WSW,244,3.5,3.5,97,0.01,,OVC,0.18,0.0,WeatherDisplay:10.37,2013-03-10 07:34:00,
2013-03-10 01:39:00,33.1,32.3,29.80,WSW,244,3.0,5.0,97,0.00,,OVC,0.18,0.0,WeatherDisplay:10.37,2013-03-10 07:39:00,
2013-03-10 01:45:00,33.2,32.4,29.80,West,277,4.6,4.6,97,0.01,,OVC,0.18,0.0,WeatherDisplay:10.37,2013-03-10 07:45:00,
2013-03-10 01:50:00,33.2,32.4,29.80,West,279,5.8,5.8,97,0.01,,OVC,0.18,0.0,WeatherDisplay:10.37,2013-03-10 07:50:00,
2013-03-10 01:55:00,33.2,32.4,29.80,WNW,287,5.0,5.0,97,0.01,,OVC,0.18,0.0,WeatherDisplay:10.37,2013-03-10 07:55:00,
2013-03-10 03:00:00,33.2,32.4,29.80,WNW,298,6.9,6.9,97,0.01,,OVC,0.18,0.0,WeatherDisplay:10.37,2013-03-10 08:00:00,
2013-03-10 03:05:00,33.4,32.6,29.80,NW,323,4.0,4.0,97,0.01,,OVC,0.18,0.0,WeatherDisplay:10.37,2013-03-10 08:05:00,
2013-03-10 03:10:00,33.4,32.6,29.80,NW,309,6.0,6.0,97,0.01,,OVC,0.18,0.0,WeatherDisplay:10.37,2013-03-10 08:10:00,
2013-03-10 03:15:00,33.4,32.6,29.80,NW,321,5.0,5.0,97,0.01,,OVC,0.18,0.0,WeatherDisplay:10.37,2013-03-10 08:15:00,
2013-03-10 03:21:00,33.4,32.6,29.80,NNW,342,10.4,10.4,97,0.00,,OVC,0.18,0.0,WeatherDisplay:10.37,2013-03-10 08:21:00,
2013-03-10 03:26:00,33.4,32.6,29.80,NNW,338,10.4,10.4,97,0.00,,OVC,0.18,0.0,WeatherDisplay:10.37,2013-03-10 08:26:00,
2013-03-10 03:31:00,33.4,32.6,29.81,NW,306,10.4,10.4,97,0.00,,OVC,0.18,0.0,WeatherDisplay:10.37,2013-03-10 08:31:00,
2013-03-10 03:36:00,33.2,32.4,29.81,NNW,333,9.2,9.2,97,0.00,,OVC,0.18,0.0,WeatherDisplay:10.37,2013-03-10 08:36:00,
2013-03-10 03:41:00,33.2,32.4,29.81,North,354,9.2,9.2,97,0.00,,OVC,0.18,0.0,WeatherDisplay:10.37,2013-03-10 08:41:00,
2013-03-10 03:46:00,33.1,32.3,29.81,North,8,6.9,6.9,97,0.00,,OVC,0.18,0.0,WeatherDisplay:10.37,2013-03-10 08:46:00,
2013-03-10 03:51:00,33.1,32.3,29.80,North,360,12.7,12.7,97,0.00,,OVC,0.18,0.0,WeatherDisplay:10.37,2013-03-10 08:51:00,
2013-03-10 03:57:00,32.9,32.1,29.80,NNW,344,8.0,8.0,97,0.01,RA,OVC,0.19,0.0,WeatherDisplay:10.37,2013-03-10 08:57:00,
2013-03-10 04:02:00,32.9,32.1,29.80,North,349,5.0,5.0,97,0.01,RA,OVC,0.19,0.0,WeatherDisplay:10.37,2013-03-10 09:02:00,
2013-03-10 04:07:00,32.8,32.0,29.81,North,356,11.5,11.5,97,0.01,,OVC,0.19,0.0,WeatherDisplay:10.37,2013-03-10 09:07:00,
2013-03-10 04:12:00,32.7,31.9,29.81,NNE,13,11.5,11.5,97,0.01,,OVC,0.19,0.0,WeatherDisplay:10.37,2013-03-10 09:12:00,
2013-03-10 04:17:00,32.7,31.9,29.81,North,11,11.5,11.5,97,0.01,,OVC,0.19,0.0,WeatherDisplay:10.37,2013-03-10 09:17:00,
2013-03-10 04:22:00,32.5,31.7,29.82,NNW,344,14.0,14.0,97,0.01,,OVC,0.19,0.0,WeatherDisplay:10.37,2013-03-10 09:22:00,
2013-03-10 04:27:00,32.5,31.7,29.82,NNW,333,12.0,12.0,97,0.01,,OVC,0.19,0.0,WeatherDisplay:10.37,2013-03-10 09:27:00,
2013-03-10 04:32:00,32.4,31.6,29.82,NNE,23,8.1,8.1,97,0.01,,OVC,0.19,0.0,WeatherDisplay:10.37,2013-03-10 09:32:00,
2013-03-10 04:38:00,32.4,31.6,29.81,North,9,14.0,14.0,97,0.01,,OVC,0.19,0.0,WeatherDisplay:10.37,2013-03-10 09:38:00,
2013-03-10 04:43:00,32.4,31.6,29.82,NNW,331,8.1,8.1,97,0.01,,OVC,0.19,0.0,WeatherDisplay:10.37,2013-03-10 09:43:00,
2013-03-10 04:48:00,32.2,31.4,29.82,NNW,331,13.0,13.0,97,0.01,,OVC,0.19,0.0,WeatherDisplay:10.37,2013-03-10 09:48:00,
2013-03-10 04:53:00,32.2,31.4,29.82,NNW,331,12.0,12.0,97,0.01,,OVC,0.19,0.0,WeatherDisplay:10.37,2013-03-10 09:53:00,
2013-03-10 04:58:00,32.2,31.4,29.82,NNW,331,10.4,10.4,97,0.00,,OVC,0.19,0.0,WeatherDisplay:10.37,2013-03-10 09:58:00,
2013-03-10 05:03:00,32.2,31.4,29.82,NNW,331,13.8,13.8,97,0.00,,OVC,0.19,0.0,WeatherDisplay:10.37,2013-03-10 10:03:00,
2013-03-10 05:08:00,32.1,31.3,29.82,NNW,331,10.4,10.4,97,0.00,,OVC,0.19,0.0,WeatherDisplay:10.37,2013-03-10 10:08:00,
2013-03-10 05:14:00,32.1,31.3,29.83,NNW,331,12.0,12.0,97,0.00,,OVC,0.19,0.0,WeatherDisplay:10.37,2013-03-10 10:14:00,
2013-03-10 05:19:00,32.1,31.3,29.83,NNW,331,11.5,11.5,97,0.00,,OVC,0.19,0.0,WeatherDisplay:10.37,2013-03-10 10:19:00,
2013-03-10 05:24:00,32.1,31.3,29.83,NNW,331,10.0,10.0,97,0.00,,OVC,0.19,0.0,WeatherDisplay:10.37,2013-03-10 10:24:00,
2013-03-10 05:29:00,31.9,31.1,29.84,NNW,331,17.3,17.3,97,0.00,,OVC,0.19,0.0,WeatherDisplay:10.37,2013-03-10 10:29:00,
2013-03-10 05:34:00,31.9,31.1,29.84,NNW,331,11.5,11.5,97,0.00,,OVC,0.19,0.0,WeatherDisplay:10.37,2013-03-10 10:34:00,
2013-03-10 05:39:00,31.9,31.1,29.85,NNW,331,13.8,13.8,97,0.00,,OVC,0.19,0.0,WeatherDisplay:10.37,2013-03-10 10:39:00,
2013-03-10 05:44:00,31.9,31.1,29.86,NNW,331,11.5,11.5,97,0.00,,OVC,0.19,0.0,WeatherDisplay:10.37,2013-03-10 10:44:00,
2013-03-10 05:49:00,31.9,31.1,29.86,NNW,331,9.2,9.2,97,0.00,,OVC,0.19,0.0,WeatherDisplay:10.37,2013-03-10 10:49:00,
2013-03-10 05:55:00,31.8,30.8,29.86,NNW,331,12.7,12.7,96,0.00,,OVC,0.19,0.0,WeatherDisplay:10.37,2013-03-10 10:55:00,
2013-03-10 06:00:00,31.8,30.8,29.87,NNW,331,9.2,9.2,96,0.00,,OVC,0.19,0.0,WeatherDisplay:10.37,2013-03-10 11:00:00,
2013-03-10 06:05:00,31.8,30.8,29.86,NNW,331,8.1,8.1,96,0.00,,OVC,0.19,0.0,WeatherDisplay:10.37,2013-03-10 11:05:00,
2013-03-10 06:10:00,31.8,30.8,29.86,NNW,331,16.1,16.1,96,0.00,,OVC,0.19,0.0,WeatherDisplay:10.37,2013-03-10 11:10:00,
2013-03-10 06:15:00,31.8,30.8,29.86,NNW,331,9.2,9.2,96,0.00,,OVC,0.19,0.0,WeatherDisplay:10.37,2013-03-10 11:15:00,
2013-03-10 06:20:00,31.8,30.8,29.86,NNW,331,15.0,15.0,96,0.00,,OVC,0.19,0.0,WeatherDisplay:10.37,2013-03-10 11:20:00,
2013-03-10 06:25:00,31.8,30.8,29.84,NNW,331,11.5,11.5,96,0.00,,OVC,0.19,0.0,WeatherDisplay:10.37,2013-03-10 11:25:00,
2013-03-10 06:31:00,31.6,30.6,29.84,NNW,331,17.3,17.3,96,0.00,,OVC,0.19,0.0,WeatherDisplay:10.37,2013-03-10 11:31:00,
2013-03-10 06:36:00,31.6,30.6,29.85,NNW,331,18.4,18.4,96,0.00,,OVC,0.19,0.0,WeatherDisplay:10.37,2013-03-10 11:36:00,
2013-03-10 06:41:00,31.6,30.6,29.85,NNW,331,13.8,13.8,96,0.00,,OVC,0.19,0.0,WeatherDisplay:10.37,2013-03-10 11:41:00,
2013-03-10 06:46:00,31.6,30.6,29.85,NNW,331,17.3,17.3,96,0.00,,OVC,0.19,0.0,WeatherDisplay:10.37,2013-03-10 11:46:00,
2013-03-10 06:51:00,31.5,30.5,29.85,NNW,331,15.0,15.0,96,0.00,,OVC,0.19,0.0,WeatherDisplay:10.37,2013-03-10 11:51:00,
2013-03-10 06:56:00,31.5,30.2,29.84,NNW,331,12.7,12.7,95,0.00,,OVC,0.19,0.0,WeatherDisplay:10.37,2013-03-10 11:56:00,
2013-03-10 07:01:00,31.5,30.2,29.84,NNW,331,15.0,15.0,95,0.00,RA,OVC,0.00,0.0,WeatherDisplay:10.37,2013-03-10 12:01:00,
2013-03-10 07:06:00,31.5,30.2,29.85,NNW,331,17.0,17.0,95,0.00,RA,OVC,0.00,0.0,WeatherDisplay:10.37,2013-03-10 12:06:00,
2013-03-10 07:12:00,31.5,30.2,29.85,NNW,331,8.1,8.1,95,0.00,CLR,OVC,0.00,0.0,WeatherDisplay:10.37,2013-03-10 12:12:00,
2013-03-10 07:17:00,31.5,30.2,29.86,NNW,331,9.2,9.2,95,0.00,CLR,OVC,0.00,0.0,WeatherDisplay:10.37,2013-03-10 12:17:00,
2013-03-10 07:22:00,31.5,30.0,29.87,NNW,331,12.7,12.7,94,0.00,CLR,OVC,0.00,0.0,WeatherDisplay:10.37,2013-03-10 12:22:00,
2013-03-10 07:27:00,31.5,30.0,29.88,NNW,331,13.8,13.8,94,0.00,CLR,OVC,0.00,0.0,WeatherDisplay:10.37,2013-03-10 12:27:00,
2013-03-10 07:32:00,31.5,30.0,29.89,NNW,331,20.7,20.7,94,0.00,CLR,OVC,0.00,0.0,WeatherDisplay:10.37,2013-03-10 12:32:00,
2013-03-10 07:37:00,31.3,29.8,29.89,NNW,331,11.5,11.5,94,0.00,CLR,OVC,0.00,0.0,WeatherDisplay:10.37,2013-03-10 12:37:00,
2013-03-10 07:42:00,31.3,29.5,29.89,NNW,331,12.7,12.7,93,0.00,CLR,OVC,0.00,0.0,WeatherDisplay:10.37,2013-03-10 12:42:00,
2013-03-10 07:48:00,31.3,29.5,29.90,NNW,331,10.4,10.4,93,0.00,CLR,OVC,0.00,0.0,WeatherDisplay:10.37,2013-03-10 12:48:00,
2013-03-10 07:53:00,31.5,29.7,29.90,NNW,331,15.0,15.0,93,0.00,CLR,OVC,0.00,0.0,WeatherDisplay:10.37,2013-03-10 12:53:00,
2013-03-10 07:58:00,31.5,29.7,29.90,NNW,331,11.5,11.5,93,0.00,CLR,OVC,0.00,0.0,WeatherDisplay:10.37,2013-03-10 12:58:00,
2013-03-10 08:03:00,31.3,29.5,29.90,NNW,331,13.8,13.8,93,0.00,CLR,OVC,0.00,0.0,WeatherDisplay:10.37,2013-03-10 13:03:00,
2013-03-10 08:08:00,31.3,29.2,29.89,NNW,331,11.5,11.5,92,0.00,CLR,OVC,0.00,0.0,WeatherDisplay:10.37,2013-03-10 13:08:00,
2013-03-10 08:13:00,31.3,29.2,29.89,NNW,331,12.7,12.7,92,0.00,CLR,OVC,0.00,0.0,WeatherDisplay:10.37,2013-03-10 13:13:00,
2013-03-10 08:18:00,31.3,29.2,29.89,NNW,331,11.5,11.5,92,0.00,CLR,OVC,0.00,0.0,WeatherDisplay:10.37,2013-03-10 13:18:00,
2013-03-10 08:23:00,31.3,29.2,29.88,NNW,331,17.3,17.3,92,0.00,CLR,OVC,0.00,0.0,WeatherDisplay:10.37,2013-03-10 13:23:00,
2013-03-10 08:29:00,31.3,29.2,29.88,NNW,331,19.6,19.6,92,0.00,CLR,OVC,0.00,0.0,WeatherDisplay:10.37,2013-03-10 13:29:00,
2013-03-10 08:34:00,31.3,29.2,29.90,NNW,331,16.1,16.1,92,0.00,CLR,OVC,0.00,0.0,WeatherDisplay:10.37,2013-03-10 13:34:00,
2013-03-10 08:39:00,31.3,29.2,29.90,NNW,331,9.2,9.2,92,0.00,CLR,OVC,0.00,0.0,WeatherDisplay:10.37,2013-03-10 13:39:00,
2013-03-10 08:44:00,31.3,29.2,29.89,NNW,331,13.0,13.0,92,0.00,CLR,OVC,0.00,0.0,WeatherDisplay:10.37,2013-03-10 13:44:00,
2013-03-10 08:49:00,31.3,29.2,29.90,NNW,331,17.3,17.3,92,0.00,CLR,OVC,0.00,0.0,WeatherDisplay:10.37,2013-03-10 13:49:00,
2013-03-10 08:54:00,31.2,29.1,29.90,NNW,331,19.0,19.0,92,0.00,CLR,OVC,0.00,0.0,WeatherDisplay:10.37,2013-03-10 13:54:00,
2013-03-10 08:59:00,31.2,28.9,29.90,NNW,331,16.1,16.1,91,0.00,CLR,OVC,0.00,0.0,WeatherDisplay:10.37,2013-03-10 13:59:00,
2013-03-10 09:05:00,31.2,28.9,29.92,NNW,331,15.0,15.0,91,0.00,OVC,,0.00,0.0,WeatherDisplay:10.37,2013-03-10 14:05:00,
2013-03-10 09:10:00,31.2,28.9,29.93,NNW,331,18.0,18.0,91,0.00,OVC,,0.00,0.0,WeatherDisplay:10.37,2013-03-10 14:10:00,
2013-03-10 09:15:00,31.2,28.6,29.93,NNW,331,16.1,16.1,90,0.00,OVC,,0.00,0.0,WeatherDisplay:10.37,2013-03-10 14:15:00,
2013-03-10 09:20:00,31.2,28.6,29.92,NNW,331,10.4,10.4,90,0.00,OVC,,0.00,0.0,WeatherDisplay:10.37,2013-03-10 14:20:00,
2013-03-10 09:25:00,31.2,28.6,29.93,NNW,331,15.0,15.0,90,0.00,OVC,,0.00,0.0,WeatherDisplay:10.37,2013-03-10 14:25:00,
2013-03-10 09:30:00,31.2,28.6,29.94,NNW,331,16.1,16.1,90,0.00,OVC,,0.00,0.0,WeatherDisplay:10.37,2013-03-10 14:30:00,
2013-03-10 09:35:00,31.3,28.4,29.94,NNW,331,13.8,13.8,89,0.00,OVC,,0.00,0.0,WeatherDisplay:10.37,2013-03-10 14:35:00,
2013-03-10 09:40:00,31.3,28.4,29.94,NNW,331,15.0,15.0,89,0.00,OVC,,0.00,0.0,WeatherDisplay:10.37,2013-03-10 14:40:00,
2013-03-10 09:46:00,31.3,28.4,29.94,NNW,331,15.0,15.0,89,0.00,OVC,,0.00,0.0,WeatherDisplay:10.37,2013-03-10 14:46:00,
2013-03-10 09:51:00,31.3,28.4,29.95,NNW,331,13.8,13.8,89,0.00,OVC,,0.00,0.0,WeatherDisplay:10.37,2013-03-10 14:51:00,
2013-03-10 09:56:00,31.3,28.4,29.95,NNW,331,10.4,10.4,89,0.00,OVC,,0.00,0.0,WeatherDisplay:10.37,2013-03-10 14:56:00,
2013-03-10 10:01:00,31.5,28.4,29.95,NNW,331,17.3,17.3,88,0.00,OVC,,0.00,0.0,WeatherDisplay:10.37,2013-03-10 15:01:00,
2013-03-10 10:06:00,31.5,28.4,29.95,NNW,331,10.4,10.4,88,0.00,OVC,,0.00,0.0,WeatherDisplay:10.37,2013-03-10 15:06:00,
2013-03-10 10:11:00,31.6,28.2,29.95,NNW,331,13.0,13.0,87,0.00,OVC,,0.00,0.0,WeatherDisplay:10.37,2013-03-10 15:11:00,
2013-03-10 10:16:00,31.8,28.4,29.95,NNW,335,15.0,15.0,87,0.00,OVC,,0.00,0.0,WeatherDisplay:10.37,2013-03-10 15:16:00,
2013-03-10 10:22:00,31.9,28.2,29.95,NNW,336,10.4,10.4,86,0.00,OVC,,0.00,0.0,WeatherDisplay:10.37,2013-03-10 15:22:00,
2013-03-10 10:27:00,32.1,28.4,29.95,NNW,337,19.6,19.6,86,0.00,OVC,,0.00,0.0,WeatherDisplay:10.37,2013-03-10 15:27:00,
2013-03-10 10:32:00,32.1,28.1,29.95,NNW,337,18.4,18.4,85,0.00,OVC,,0.00,0.0,WeatherDisplay:10.37,2013-03-10 15:32:00,
2013-03-10 10:37:00,32.1,28.1,29.94,NNW,337,23.0,23.0,85,0.00,OVC,,0.00,0.0,WeatherDisplay:10.37,2013-03-10 15:37:00,
2013-03-10 10:42:00,32.2,28.2,29.94,NNW,341,17.0,17.0,85,0.00,OVC,,0.00,0.0,WeatherDisplay:10.37,2013-03-10 15:42:00,
2013-03-10 10:47:00,32.2,28.2,29.95,NNW,341,14.0,14.0,85,0.00,OVC,,0.00,0.0,WeatherDisplay:10.37,2013-03-10 15:47:00,
2013-03-10 10:52:00,32.4,28.1,29.95,NNW,342,15.0,15.0,84,0.00,OVC,,0.00,0.0,WeatherDisplay:10.37,2013-03-10 15:52:00,
2013-03-10 10:57:00,32.4,28.1,29.96,NNW,343,15.0,15.0,84,0.00,OVC,,0.00,0.0,WeatherDisplay:10.37,2013-03-10 15:57:00,
2013-03-10 11:03:00,32.4,28.1,29.96,NNW,343,12.7,12.7,84,0.00,OVC,,0.00,0.0,WeatherDisplay:10.37,2013-03-10 16:03:00,
2013-03-10 11:08:00,32.4,27.8,29.96,NNW,345,13.8,13.8,83,0.00,OVC,,0.00,0.0,WeatherDisplay:10.37,2013-03-10 16:08:00,
2013-03-10 11:13:00,32.5,27.6,29.96,North,352,11.5,11.5,82,0.00,OVC,,0.00,0.0,WeatherDisplay:10.37,2013-03-10 16:13:00,
2013-03-10 11:18:00,32.5,27.6,29.96,North,356,16.1,16.1,82,0.00,OVC,,0.00,0.0,WeatherDisplay:10.37,2013-03-10 16:18:00,
2013-03-10 11:23:00,32.5,27.3,29.96,North,356,17.0,17.0,81,0.01,RA,OVC,0.01,0.0,WeatherDisplay:10.37,2013-03-10 16:23:00,
2013-03-10 11:28:00,32.5,27.3,29.96,North,356,9.2,9.2,81,0.01,RA,OVC,0.01,0.0,WeatherDisplay:10.37,2013-03-10 16:28:00,
2013-03-10 11:33:00,32.5,27.6,29.96,North,356,11.5,11.5,82,0.01,OVC,,0.01,0.0,WeatherDisplay:10.37,2013-03-10 16:33:00,
2013-03-10 11:39:00,32.5,27.6,29.96,North,356,20.7,20.7,82,0.01,OVC,,0.01,0.0,WeatherDisplay:10.37,2013-03-10 16:39:00,
2013-03-10 11:44:00,32.5,27.9,29.97,North,356,23.0,23.0,83,0.01,OVC,,0.01,0.0,WeatherDisplay:10.37,2013-03-10 16:44:00,
2013-03-10 11:49:00,32.5,27.6,29.98,North,356,10.0,10.0,82,0.01,OVC,,0.01,0.0,WeatherDisplay:10.37,2013-03-10 16:49:00,
2013-03-10 11:54:00,32.5,27.9,29.98,North,356,17.3,17.3,83,0.01,OVC,,0.01,0.0,WeatherDisplay:10.37,2013-03-10 16:54:00,
2013-03-10 11:59:00,32.7,27.8,30.00,North,356,15.0,15.0,82,0.01,OVC,,0.01,0.0,WeatherDisplay:10.37,2013-03-10 16:59:00,
2013-03-10 12:04:00,32.7,27.5,30.00,North,356,9.2,9.2,81,0.01,OVC,,0.01,0.0,WeatherDisplay:10.37,2013-03-10 17:04:00,
2013-03-10 12:09:00,32.7,27.5,30.00,North,356,9.2,9.2,81,0.01,OVC,,0.01,0.0,WeatherDisplay:10.37,2013-03-10 17:09:00,
2013-03-10 12:14:00,32.7,27.2,30.00,North,356,15.0,15.0,80,0.01,OVC,,0.01,0.0,WeatherDisplay:10.37,2013-03-10 17:14:00,
2013-03-10 12:19:00,32.5,27.0,30.00,North,356,12.0,25.0,80,0.00,OVC,OVC,0.01,0.0,WeatherDisplay:10.37,2013-03-10 17:19:00,
2013-03-10 12:24:00,32.5,27.0,30.00,North,356,10.4,10.4,80,0.00,OVC,,0.01,0.0,WeatherDisplay:10.37,2013-03-10 17:24:00,
2013-03-10 12:29:00,32.6,27.4,30.00,North,356,6.0,14.0,81,0.00,OVC,OVC,0.01,0.0,WeatherDisplay:10.37,2013-03-10 17:29:00,
2013-03-10 12:35:00,32.7,27.5,29.99,North,357,13.0,13.0,81,0.00,OVC,,0.01,0.0,WeatherDisplay:10.37,2013-03-10 17:35:00,
2013-03-10 12:40:00,32.7,27.5,29.99,North,357,5.0,18.0,81,0.00,OVC,OVC,0.01,0.0,WeatherDisplay:10.37,2013-03-10 17:40:00,
2013-03-10 12:45:00,32.7,27.5,29.99,North,357,11.5,11.5,81,0.01,RA,OVC,0.02,0.0,WeatherDisplay:10.37,2013-03-10 17:45:00,
2013-03-10 12:50:00,32.7,27.8,29.98,North,357,11.5,11.5,82,0.01,RA,OVC,0.02,0.0,WeatherDisplay:10.37,2013-03-10 17:50:00,
2013-03-10 12:55:00,32.7,27.8,29.97,North,357,16.1,16.1,82,0.01,OVC,,0.02,0.0,WeatherDisplay:10.37,2013-03-10 17:55:00,
2013-03-10 13:00:00,32.5,27.3,29.97,North,357,15.0,15.0,81,0.01,OVC,,0.02,0.0,WeatherDisplay:10.37,2013-03-10 18:00:00,
2013-03-10 13:05:00,32.4,27.5,29.97,North,357,15.0,15.0,82,0.01,OVC,,0.02,0.0,WeatherDisplay:10.37,2013-03-10 18:05:00,
2013-03-10 13:10:00,32.4,27.2,29.97,North,357,16.1,16.1,81,0.01,OVC,,0.02,0.0,WeatherDisplay:10.37,2013-03-10 18:10:00,
2013-03-10 13:15:00,32.4,27.2,29.97,North,357,25.3,25.3,81,0.01,OVC,,0.02,0.0,WeatherDisplay:10.37,2013-03-10 18:15:00,
2013-03-10 13:21:00,32.5,27.3,29.98,North,357,13.8,13.8,81,0.01,OVC,,0.02,0.0,WeatherDisplay:10.37,2013-03-10 18:21:00,
2013-03-10 13:26:00,32.5,27.3,29.98,North,357,15.0,15.0,81,0.01,OVC,,0.02,0.0,WeatherDisplay:10.37,2013-03-10 18:26:00,
2013-03-10 13:31:00,32.7,27.2,29.98,North,357,12.7,12.7,80,0.01,OVC,,0.02,0.0,WeatherDisplay:10.37,2013-03-10 18:31:00,
2013-03-10 13:36:00,32.5,27.0,29.99,North,357,14.0,14.0,80,0.01,OVC,,0.02,0.0,WeatherDisplay:10.37,2013-03-10 18:36:00,
2013-03-10 13:41:00,32.7,27.5,29.99,North,357,19.6,19.6,81,0.00,OVC,,0.02,0.0,WeatherDisplay:10.37,2013-03-10 18:41:00,
2013-03-10 13:46:00,32.5,27.3,29.99,North,357,9.2,9.2,81,0.00,OVC,,0.02,0.0,WeatherDisplay:10.37,2013-03-10 18:46:00,
2013-03-10 13:51:00,32.5,27.3,30.00,North,357,12.7,12.7,81,0.00,OVC,,0.02,0.0,WeatherDisplay:10.37,2013-03-10 18:51:00,
2013-03-10 13:56:00,32.2,27.0,30.00,North,357,19.6,19.6,81,0.00,OVC,,0.02,0.0,WeatherDisplay:10.37,2013-03-10 18:56:00,
2013-03-10 14:02:00,32.1,26.6,30.00,North,357,19.6,19.6,80,0.00,OVC,,0.03,0.0,WeatherDisplay:10.37,2013-03-10 19:02:00,
2013-03-10 14:07:00,32.1,26.9,29.99,North,357,9.2,9.2,81,0.01,RA,OVC,0.03,0.0,WeatherDisplay:10.37,2013-03-10 19:07:00,
2013-03-10 14:12:00,32.1,26.6,29.99,North,357,18.4,18.4,80,0.01,OVC,,0.03,0.0,WeatherDisplay:10.37,2013-03-10 19:12:00,
2013-03-10 14:17:00,31.9,26.1,29.98,North,357,16.1,16.1,79,0.01,OVC,,0.03,0.0,WeatherDisplay:10.37,2013-03-10 19:17:00,
2013-03-10 14:22:00,31.9,25.8,29.98,North,357,14.0,14.0,78,0.01,OVC,,0.03,0.0,WeatherDisplay:10.37,2013-03-10 19:22:00,
2013-03-10 14:27:00,31.9,25.8,29.97,North,357,13.8,13.8,78,0.01,OVC,,0.03,0.0,WeatherDisplay:10.37,2013-03-10 19:27:00,
2013-03-10 14:32:00,31.9,25.8,29.97,North,357,18.4,18.4,78,0.01,OVC,,0.03,0.0,WeatherDisplay:10.37,2013-03-10 19:32:00,
2013-03-10 14:37:00,31.8,25.7,29.96,North,357,23.0,23.0,78,0.01,OVC,,0.03,0.0,WeatherDisplay:10.37,2013-03-10 19:37:00,
2013-03-10 14:43:00,31.8,25.7,29.96,North,357,16.1,16.1,78,0.01,OVC,,0.03,0.0,WeatherDisplay:10.37,2013-03-10 19:43:00,
2013-03-10 14:48:00,31.8,26.0,29.95,North,357,13.0,13.0,79,0.01,OVC,,0.03,0.0,WeatherDisplay:10.37,2013-03-10 19:48:00,
2013-03-10 14:53:00,31.8,26.0,29.95,North,357,10.4,10.4,79,0.01,OVC,,0.03,0.0,WeatherDisplay:10.37,2013-03-10 19:53:00,
2013-03-10 14:58:00,31.8,26.0,29.94,North,357,23.0,23.0,79,0.01,OVC,,0.03,0.0,WeatherDisplay:10.37,2013-03-10 19:58:00,
2013-03-10 15:03:00,31.8,26.3,29.94,North,357,22.0,22.0,80,0.00,OVC,,0.03,0.0,WeatherDisplay:10.37,2013-03-10 20:03:00,
2013-03-10 15:08:00,31.8,26.3,29.94,North,357,17.3,17.3,80,0.00,OVC,,0.03,0.0,WeatherDisplay:10.37,2013-03-10 20:08:00,
2013-03-10 15:13:00,31.6,26.4,29.94,North,357,19.6,19.6,81,0.00,OVC,,0.03,0.0,WeatherDisplay:10.37,2013-03-10 20:13:00,
2013-03-10 15:19:00,31.6,26.4,29.94,North,357,16.1,16.1,81,0.00,OVC,,0.03,0.0,WeatherDisplay:10.37,2013-03-10 20:19:00,
2013-03-10 15:24:00,31.6,26.4,29.95,North,357,19.6,19.6,81,0.00,OVC,,0.03,0.0,WeatherDisplay:10.37,2013-03-10 20:24:00,
2013-03-10 15:29:00,31.5,26.3,29.95,North,357,23.0,23.0,81,0.00,OVC,,0.03,0.0,WeatherDisplay:10.37,2013-03-10 20:29:00,
2013-03-10 15:34:00,31.5,26.3,29.95,North,357,20.7,20.7,81,0.00,OVC,,0.03,0.0,WeatherDisplay:10.37,2013-03-10 20:34:00,
2013-03-10 15:39:00,31.6,26.4,29.95,North,357,15.0,15.0,81,0.00,OVC,,0.03,0.0,WeatherDisplay:10.37,2013-03-10 20:39:00,
2013-03-10 15:44:00,31.6,26.1,29.96,North,357,16.1,16.1,80,0.00,OVC,,0.03,0.0,WeatherDisplay:10.37,2013-03-10 20:44:00,
2013-03-10 15:49:00,31.6,26.1,29.97,North,357,16.1,16.1,80,0.00,OVC,,0.03,0.0,WeatherDisplay:10.37,2013-03-10 20:49:00,
2013-03-10 15:54:00,31.6,26.1,29.96,North,357,15.0,15.0,80,0.00,OVC,,0.03,0.0,WeatherDisplay:10.37,2013-03-10 20:54:00,
2013-03-10 15:59:00,31.6,26.1,29.96,North,357,9.0,21.0,80,0.00,OVC,OVC,0.03,0.0,WeatherDisplay:10.37,2013-03-10 20:59:00,
2013-03-10 16:04:00,31.5,26.0,29.97,North,357,20.7,20.7,80,0.01,RA,OVC,0.04,0.0,WeatherDisplay:10.37,2013-03-10 21:04:00,
2013-03-10 16:10:00,31.5,26.0,29.97,North,357,14.0,23.0,80,0.00,RA,OVC,0.04,0.0,WeatherDisplay:10.37,2013-03-10 21:10:00,
2013-03-10 16:15:00,31.5,26.0,29.97,North,357,21.9,21.9,80,0.01,OVC,,0.04,0.0,WeatherDisplay:10.37,2013-03-10 21:15:00,
2013-03-10 16:20:00,31.5,26.0,29.97,North,357,12.0,22.0,80,0.00,OVC,OVC,0.04,0.0,WeatherDisplay:10.37,2013-03-10 21:20:00,
2013-03-10 16:25:00,31.5,26.0,29.97,North,357,23.0,23.0,80,0.01,OVC,,0.04,0.0,WeatherDisplay:10.37,2013-03-10 21:25:00,
2013-03-10 16:30:00,31.3,25.8,29.97,North,357,13.0,27.0,80,0.00,OVC,OVC,0.04,0.0,WeatherDisplay:10.37,2013-03-10 21:30:00,
2013-03-10 16:35:00,31.3,26.1,29.97,North,357,19.6,19.6,81,0.01,OVC,,0.04,0.0,WeatherDisplay:10.37,2013-03-10 21:35:00,
2013-03-10 16:40:00,31.2,25.7,29.97,North,357,23.0,23.0,80,0.01,OVC,,0.04,0.0,WeatherDisplay:10.37,2013-03-10 21:40:00,
2013-03-10 16:45:00,31.0,25.6,29.97,North,357,18.4,18.4,80,0.01,OVC,,0.04,0.0,WeatherDisplay:10.37,2013-03-10 21:45:00,
2013-03-10 16:50:00,31.0,25.6,29.97,North,357,12.7,12.7,80,0.01,OVC,,0.04,0.0,WeatherDisplay:10.37,2013-03-10 21:50:00,
2013-03-10 16:55:00,30.9,25.5,29.97,North,357,18.4,18.4,80,0.01,OVC,,0.04,0.0,WeatherDisplay:10.37,2013-03-10 21:55:00,
2013-03-10 17:00:00,30.9,25.5,29.97,North,357,18.4,18.4,80,0.01,CLR,OVC,0.04,0.0,WeatherDisplay:10.37,2013-03-10 22:00:00,
2013-03-10 17:05:00,30.9,25.5,29.96,North,357,18.0,18.0,80,0.00,CLR,OVC,0.04,0.0,WeatherDisplay:10.37,2013-03-10 22:05:00,
2013-03-10 17:11:00,30.7,25.3,29.96,North,357,9.2,9.5,80,0.00,CLR,OVC,0.04,0.0,WeatherDisplay:10.37,2013-03-10 22:11:00,
2013-03-10 17:16:00,30.7,25.3,29.96,North,357,25.3,25.3,80,0.00,CLR,OVC,0.04,0.0,WeatherDisplay:10.37,2013-03-10 22:16:00,
2013-03-10 17:21:00,30.7,25.3,29.96,North,357,13.8,13.8,80,0.00,CLR,OVC,0.04,0.0,WeatherDisplay:10.37,2013-03-10 22:21:00,
2013-03-10 17:26:00,30.6,25.2,29.96,North,357,20.7,20.7,80,0.00,CLR,OVC,0.04,0.0,WeatherDisplay:10.37,2013-03-10 22:26:00,
2013-03-10 17:32:00,30.4,25.0,29.96,North,357,23.0,23.0,80,0.00,CLR,OVC,0.04,0.0,WeatherDisplay:10.37,2013-03-10 22:32:00,
2013-03-10 17:37:00,30.4,25.3,29.96,North,357,18.4,18.4,81,0.00,CLR,OVC,0.04,0.0,WeatherDisplay:10.37,2013-03-10 22:37:00,
2013-03-10 17:42:00,30.3,25.2,29.96,North,357,20.7,20.7,81,0.00,CLR,OVC,0.04,0.0,WeatherDisplay:10.37,2013-03-10 22:42:00,
2013-03-10 17:47:00,30.1,25.0,29.96,North,357,16.1,16.1,81,0.00,CLR,OVC,0.04,0.0,WeatherDisplay:10.37,2013-03-10 22:47:00,
2013-03-10 17:52:00,30.1,25.0,29.95,North,357,20.7,20.7,81,0.00,CLR,OVC,0.04,0.0,WeatherDisplay:10.37,2013-03-10 22:52:00,
2013-03-10 17:57:00,30.0,24.6,29.95,North,358,21.9,21.9,80,0.00,CLR,OVC,0.04,0.0,WeatherDisplay:10.37,2013-03-10 22:57:00,
2013-03-10 18:02:00,30.0,24.9,29.95,North,357,17.0,17.0,81,0.00,CLR,OVC,0.04,0.0,WeatherDisplay:10.37,2013-03-10 23:02:00,
2013-03-10 18:07:00,29.8,24.7,29.95,North,357,19.0,19.0,81,0.00,CLR,OVC,0.04,0.0,WeatherDisplay:10.37,2013-03-10 23:07:00,
2013-03-10 18:12:00,29.8,24.7,29.94,North,357,17.3,17.3,81,0.00,CLR,OVC,0.04,0.0,WeatherDisplay:10.37,2013-03-10 23:12:00,
2013-03-10 18:17:00,29.8,24.7,29.95,North,357,17.3,17.3,81,0.00,CLR,OVC,0.04,0.0,WeatherDisplay:10.37,2013-03-10 23:17:00,
2013-03-10 18:23:00,29.7,24.6,29.94,North,357,16.1,16.1,81,0.00,CLR,OVC,0.04,0.0,WeatherDisplay:10.37,2013-03-10 23:23:00,
2013-03-10 18:28:00,29.5,24.4,29.94,North,357,23.0,23.0,81,0.00,CLR,OVC,0.04,0.0,WeatherDisplay:10.37,2013-03-10 23:28:00,
2013-03-10 18:33:00,29.5,24.4,29.95,North,357,26.5,26.5,81,0.00,CLR,OVC,0.04,0.0,WeatherDisplay:10.37,2013-03-10 23:33:00,
2013-03-10 18:38:00,29.4,24.6,29.95,North,357,21.9,21.9,82,0.00,CLR,OVC,0.04,0.0,WeatherDisplay:10.37,2013-03-10 23:38:00,
2013-03-10 18:43:00,29.4,24.6,29.95,North,357,20.7,20.7,82,0.00,CLR,OVC,0.04,0.0,WeatherDisplay:10.37,2013-03-10 23:43:00,
2013-03-10 18:48:00,29.3,24.8,29.94,North,357,26.5,26.5,83,0.00,CLR,OVC,0.04,0.0,WeatherDisplay:10.37,2013-03-10 23:48:00,
2013-03-10 18:53:00,29.3,24.8,29.94,North,357,26.5,26.5,83,0.00,CLR,OVC,0.04,0.0,WeatherDisplay:10.37,2013-03-10 23:53:00,
2013-03-10 18:59:00,29.1,24.9,29.94,North,357,27.0,27.0,84,0.00,CLR,OVC,0.04,0.0,WeatherDisplay:10.37,2013-03-10 23:59:00,
2013-03-10 19:04:00,29.0,24.8,29.95,North,357,23.0,23.0,84,0.00,CLR,OVC,0.04,0.0,WeatherDisplay:10.37,2013-03-11 00:04:00,
2013-03-10 19:09:00,29.0,24.8,29.95,North,357,23.0,23.0,84,0.00,CLR,OVC,0.04,0.0,WeatherDisplay:10.37,2013-03-11 00:09:00,
2013-03-10 19:14:00,28.8,24.6,29.96,North,357,18.4,18.4,84,0.00,CLR,OVC,0.04,0.0,WeatherDisplay:10.37,2013-03-11 00:14:00,
2013-03-10 19:19:00,28.8,24.9,29.96,North,357,17.3,17.3,85,0.00,CLR,OVC,0.04,0.0,WeatherDisplay:10.37,2013-03-11 00:19:00,
2013-03-10 19:24:00,28.7,24.8,29.97,North,357,11.5,11.5,85,0.00,CLR,OVC,0.04,0.0,WeatherDisplay:10.37,2013-03-11 00:24:00,
2013-03-10 19:29:00,28.7,24.8,29.97,North,357,22.0,22.0,85,0.00,CLR,OVC,0.04,0.0,WeatherDisplay:10.37,2013-03-11 00:29:00,
2013-03-10 19:34:00,28.7,24.8,29.97,North,357,24.2,24.2,85,0.00,CLR,OVC,0.04,0.0,WeatherDisplay:10.37,2013-03-11 00:34:00,
2013-03-10 19:40:00,28.5,24.6,29.96,North,357,14.0,31.0,85,0.00,CLR,OVC,0.04,0.0,WeatherDisplay:10.37,2013-03-11 00:40:00,
2013-03-10 19:45:00,28.5,24.6,29.96,North,358,25.3,25.3,85,0.00,CLR,OVC,0.04,0.0,WeatherDisplay:10.37,2013-03-11 00:45:00,
2013-03-10 19:50:00,28.4,24.5,29.96,North,357,21.9,21.9,85,0.00,CLR,OVC,0.04,0.0,WeatherDisplay:10.37,2013-03-11 00:50:00,
2013-03-10 19:55:00,28.4,24.7,29.96,North,357,15.0,15.0,86,0.00,CLR,OVC,0.04,0.0,WeatherDisplay:10.37,2013-03-11 00:55:00,
2013-03-10 20:00:00,28.4,24.7,29.96,North,357,17.0,17.0,86,0.00,CLR,OVC,0.04,0.0,WeatherDisplay:10.37,2013-03-11 01:00:00,
2013-03-10 20:05:00,28.4,24.7,29.95,North,357,18.4,18.4,86,0.00,CLR,OVC,0.04,0.0,WeatherDisplay:10.37,2013-03-11 01:05:00,
2013-03-10 20:10:00,28.2,24.6,29.94,North,357,18.4,18.4,86,0.00,CLR,OVC,0.04,0.0,WeatherDisplay:10.37,2013-03-11 01:10:00,
2013-03-10 20:15:00,28.2,24.6,29.93,North,357,14.0,14.0,86,0.00,CLR,OVC,0.04,0.0,WeatherDisplay:10.37,2013-03-11 01:15:00,
2013-03-10 20:20:00,28.2,24.6,29.94,North,357,23.0,23.0,86,0.00,CLR,OVC,0.04,0.0,WeatherDisplay:10.37,2013-03-11 01:20:00,
2013-03-10 20:26:00,28.1,24.5,29.94,North,357,17.3,17.3,86,0.00,CLR,OVC,0.04,0.0,WeatherDisplay:10.37,2013-03-11 01:26:00,
2013-03-10 20:32:00,28.1,24.5,29.94,North,357,25.3,25.3,86,0.00,CLR,OVC,0.04,0.0,WeatherDisplay:10.37,2013-03-11 01:32:00,
2013-03-10 20:37:00,28.1,24.5,29.94,North,357,19.6,19.6,86,0.00,CLR,OVC,0.04,0.0,WeatherDisplay:10.37,2013-03-11 01:37:00,
2013-03-10 20:42:00,28.1,24.5,29.95,North,357,13.8,13.8,86,0.00,CLR,OVC,0.04,0.0,WeatherDisplay:10.37,2013-03-11 01:42:00,
2013-03-10 20:47:00,28.1,24.5,29.95,North,357,27.6,27.6,86,0.00,CLR,OVC,0.04,0.0,WeatherDisplay:10.37,2013-03-11 01:47:00,
2013-03-10 20:52:00,28.1,24.5,29.95,North,357,23.0,23.0,86,0.00,CLR,OVC,0.04,0.0,WeatherDisplay:10.37,2013-03-11 01:52:00,
2013-03-10 20:57:00,28.1,24.5,29.96,North,357,16.0,16.0,86,0.00,CLR,OVC,0.04,0.0,WeatherDisplay:10.37,2013-03-11 01:57:00,
2013-03-10 21:02:00,28.1,24.5,29.97,North,357,21.0,21.0,86,0.00,CLR,OVC,0.04,0.0,WeatherDisplay:10.37,2013-03-11 02:02:00,
2013-03-10 21:08:00,28.1,24.2,29.97,North,357,15.0,15.0,85,0.00,CLR,OVC,0.04,0.0,WeatherDisplay:10.37,2013-03-11 02:08:00,
2013-03-10 21:13:00,28.1,24.2,29.97,North,357,16.1,16.1,85,0.00,CLR,OVC,0.04,0.0,WeatherDisplay:10.37,2013-03-11 02:13:00,
2013-03-10 21:18:00,28.1,24.2,29.97,North,357,14.0,14.0,85,0.00,CLR,OVC,0.04,0.0,WeatherDisplay:10.37,2013-03-11 02:18:00,
2013-03-10 21:23:00,28.1,24.2,29.97,North,357,25.3,25.3,85,0.00,CLR,OVC,0.04,0.0,WeatherDisplay:10.37,2013-03-11 02:23:00,
2013-03-10 21:28:00,28.1,23.9,29.98,North,357,25.3,25.3,84,0.00,CLR,OVC,0.04,0.0,WeatherDisplay:10.37,2013-03-11 02:28:00,
2013-03-10 21:33:00,28.1,23.9,29.97,North,357,25.0,25.0,84,0.00,CLR,OVC,0.04,0.0,WeatherDisplay:10.37,2013-03-11 02:33:00,
2013-03-10 21:38:00,28.1,23.9,29.97,North,357,15.0,15.0,84,0.00,CLR,OVC,0.04,0.0,WeatherDisplay:10.37,2013-03-11 02:38:00,
2013-03-10 21:44:00,28.1,23.9,29.97,North,357,23.0,23.0,84,0.00,CLR,OVC,0.04,0.0,WeatherDisplay:10.37,2013-03-11 02:44:00,
2013-03-10 21:49:00,28.1,23.9,29.97,North,357,21.9,21.9,84,0.00,CLR,OVC,0.04,0.0,WeatherDisplay:10.37,2013-03-11 02:49:00,
2013-03-10 21:54:00,28.1,23.9,29.97,North,357,19.6,19.6,84,0.00,CLR,OVC,0.04,0.0,WeatherDisplay:10.37,2013-03-11 02:54:00,
2013-03-10 21:59:00,27.9,23.7,29.97,North,357,19.6,19.6,84,0.00,CLR,OVC,0.04,0.0,WeatherDisplay:10.37,2013-03-11 02:59:00,
2013-03-10 22:04:00,27.9,23.4,29.97,North,357,23.0,23.0,83,0.00,CLR,OVC,0.04,0.0,WeatherDisplay:10.37,2013-03-11 03:04:00,
2013-03-10 22:09:00,27.9,23.4,29.97,North,357,17.3,17.3,83,0.00,CLR,OVC,0.04,0.0,WeatherDisplay:10.37,2013-03-11 03:09:00,
2013-03-10 22:14:00,27.9,23.4,29.96,North,357,19.0,19.0,83,0.00,CLR,OVC,0.04,0.0,WeatherDisplay:10.37,2013-03-11 03:14:00,
2013-03-10 22:19:00,27.9,23.4,29.96,North,357,17.3,17.3,83,0.00,CLR,OVC,0.04,0.0,WeatherDisplay:10.37,2013-03-11 03:19:00,
2013-03-10 22:25:00,27.8,23.3,29.95,North,357,21.9,21.9,83,0.00,CLR,OVC,0.04,0.0,WeatherDisplay:10.37,2013-03-11 03:25:00,
2013-03-10 22:30:00,27.8,23.3,29.95,North,357,29.9,29.9,83,0.00,CLR,OVC,0.04,0.0,WeatherDisplay:10.37,2013-03-11 03:30:00,
2013-03-10 22:35:00,27.8,23.3,29.95,North,357,19.6,19.6,83,0.00,CLR,OVC,0.04,0.0,WeatherDisplay:10.37,2013-03-11 03:35:00,
2013-03-10 22:40:00,27.8,23.3,29.94,North,357,18.0,18.0,83,0.00,CLR,OVC,0.04,0.0,WeatherDisplay:10.37,2013-03-11 03:40:00,
2013-03-10 22:45:00,27.6,23.1,29.94,North,357,26.0,26.0,83,0.00,CLR,OVC,0.04,0.0,WeatherDisplay:10.37,2013-03-11 03:45:00,
2013-03-10 22:50:00,27.6,23.1,29.94,North,357,23.0,23.0,83,0.00,CLR,OVC,0.04,0.0,WeatherDisplay:10.37,2013-03-11 03:50:00,
2013-03-10 22:55:00,27.6,23.1,29.94,North,357,24.2,24.2,83,0.00,CLR,OVC,0.04,0.0,WeatherDisplay:10.37,2013-03-11 03:55:00,
2013-03-10 23:00:00,27.6,23.1,29.93,North,357,21.0,21.0,83,0.00,CLR,OVC,0.04,0.0,WeatherDisplay:10.37,2013-03-11 04:00:00,
2013-03-10 23:01:00,27.6,23.1,29.93,North,357,26.5,26.5,83,0.00,CLR,OVC,0.04,0.0,WeatherDisplay:10.37,2013-03-11 04:01:00,
2013-03-10 23:07:00,27.5,23.3,29.94,North,357,19.6,19.6,84,0.00,CLR,OVC,0.04,0.0,WeatherDisplay:10.37,2013-03-11 04:07:00,
2013-03-10 23:12:00,27.5,23.3,29.93,North,357,20.7,20.7,84,0.00,CLR,OVC,0.04,0.0,WeatherDisplay:10.37,2013-03-11 04:12:00,
2013-03-10 23:17:00,27.5,23.3,29.93,North,357,19.6,19.6,84,0.00,CLR,OVC,0.04,0.0,WeatherDisplay:10.37,2013-03-11 04:17:00,
2013-03-10 23:22:00,27.5,23.0,29.93,North,357,26.0,26.0,83,0.00,CLR,OVC,0.04,0.0,WeatherDisplay:10.37,2013-03-11 04:22:00,
2013-03-10 23:27:00,27.3,22.8,29.93,North,357,19.6,19.6,83,0.00,CLR,OVC,0.04,0.0,WeatherDisplay:10.37,2013-03-11 04:27:00,
2013-03-10 23:32:00,27.3,22.8,29.92,North,357,21.9,21.9,83,0.00,CLR,OVC,0.04,0.0,WeatherDisplay:10.37,2013-03-11 04:32:00,
2013-03-10 23:38:00,27.3,22.8,29.92,North,357,12.7,12.7,83,0.00,CLR,OVC,0.04,0.0,WeatherDisplay:10.37,2013-03-11 04:38:00,
2013-03-10 23:43:00,27.3,22.5,29.92,North,357,15.0,15.0,82,0.00,CLR,OVC,0.04,0.0,WeatherDisplay:10.37,2013-03-11 04:43:00,
2013-03-10 23:48:00,27.2,22.4,29.92,North,357,20.7,20.7,82,0.00,CLR,OVC,0.04,0.0,WeatherDisplay:10.37,2013-03-11 04:48:00,
2013-03-10 23:53:00,27.2,22.4,29.91,North,357,16.1,16.1,82,0.00,CLR,OVC,0.04,0.0,WeatherDisplay:10.37,2013-03-11 04:53:00,
2013-03-10 23:58:00,27.2,22.4,29.91,North,357,22.0,22.0,82,0.00,CLR,OVC,0.04,0.0,WeatherDisplay:10.37,2013-03-11 04:58:00,